createdAt,value
2018-07-05T00:00:05.371Z,0
2018-07-05T00:01:15.554Z,0
2018-07-05T00:02:25.705Z,0
2018-07-05T00:03:35.869Z,0
2018-07-05T00:04:46.007Z,0
2018-07-05T00:05:56.149Z,0
2018-07-05T00:07:06.297Z,0
2018-07-05T00:08:16.626Z,0
2018-07-05T00:09:26.828Z,0
2018-07-05T00:10:37.055Z,0
2018-07-05T00:11:47.224Z,0
2018-07-05T00:12:57.369Z,0
2018-07-05T00:14:07.572Z,0
2018-07-05T00:15:17.457Z,0
2018-07-05T00:16:27.694Z,0
2018-07-05T00:17:38.112Z,0
2018-07-05T00:18:47.999Z,0
2018-07-05T00:19:58.161Z,0
2018-07-05T00:21:07.942Z,0
2018-07-05T00:22:17.833Z,0
2018-07-05T00:23:28.070Z,0
2018-07-05T00:24:38.287Z,0
2018-07-05T00:25:48.160Z,0
2018-07-05T00:26:58.316Z,0
2018-07-05T00:28:08.234Z,0
2018-07-05T00:29:18.359Z,0
2018-07-05T00:30:28.141Z,0
2018-07-05T00:31:38.276Z,0
2018-07-05T00:32:48.453Z,0
2018-07-05T00:33:58.592Z,0
2018-07-05T00:35:08.493Z,0
2018-07-05T00:36:18.509Z,0
2018-07-05T00:37:28.775Z,0
2018-07-05T00:38:38.989Z,0
2018-07-05T00:39:49.153Z,0
2018-07-05T00:40:59.378Z,0
2018-07-05T00:42:09.668Z,0
2018-07-05T00:43:19.546Z,0
2018-07-05T00:44:29.797Z,0
2018-07-05T00:45:39.938Z,0
2018-07-05T00:46:50.086Z,0
2018-07-05T00:47:59.844Z,0
2018-07-05T00:49:10.284Z,0
2018-07-05T00:50:20.567Z,0
2018-07-05T00:51:30.737Z,0
2018-07-05T00:52:40.864Z,0
2018-07-05T00:53:51.008Z,0
2018-07-05T00:55:01.127Z,0
2018-07-05T00:56:11.374Z,0
2018-07-05T00:57:21.613Z,0
2018-07-05T00:58:31.835Z,0
2018-07-05T00:59:42.026Z,0
2018-07-05T01:00:52.400Z,0
2018-07-05T01:02:02.583Z,0
2018-07-05T01:03:12.729Z,0
2018-07-05T01:04:22.871Z,0
2018-07-05T01:05:33.132Z,0
2018-07-05T01:06:43.031Z,0
2018-07-05T01:07:53.159Z,0
2018-07-05T01:09:03.327Z,0
2018-07-05T01:10:13.468Z,0
2018-07-05T01:11:23.610Z,0
2018-07-05T01:12:33.552Z,0
2018-07-05T01:13:43.736Z,0
2018-07-05T01:14:53.913Z,0
2018-07-05T01:16:04.068Z,0
2018-07-05T01:17:14.332Z,0
2018-07-05T01:18:24.613Z,0
2018-07-05T01:19:34.479Z,0
2018-07-05T01:20:44.393Z,0
2018-07-05T01:21:54.550Z,0
2018-07-05T01:23:04.677Z,0
2018-07-05T01:24:14.808Z,0
2018-07-05T01:25:24.981Z,0
2018-07-05T01:26:35.177Z,0
2018-07-05T01:27:45.359Z,0
2018-07-05T01:28:55.585Z,0
2018-07-05T01:30:05.867Z,0
2018-07-05T01:31:16.058Z,0
2018-07-05T01:32:26.332Z,0
2018-07-05T01:33:36.550Z,0
2018-07-05T01:34:46.679Z,0
2018-07-05T01:35:56.922Z,0
2018-07-05T01:37:07.065Z,0
2018-07-05T01:38:17.249Z,0
2018-07-05T01:39:27.379Z,0
2018-07-05T01:40:37.506Z,0
2018-07-05T01:41:47.676Z,0
2018-07-05T01:42:57.808Z,0
2018-07-05T01:44:08.014Z,0
2018-07-05T01:45:18.142Z,0
2018-07-05T01:46:28.292Z,0
2018-07-05T01:47:38.442Z,0
2018-07-05T01:48:48.416Z,0
2018-07-05T01:49:58.635Z,0
2018-07-05T01:51:08.857Z,0
2018-07-05T01:52:19.107Z,0
2018-07-05T01:53:28.883Z,0
2018-07-05T01:54:39.062Z,0
2018-07-05T01:55:49.269Z,0
2018-07-05T01:56:59.487Z,0
2018-07-05T01:58:09.623Z,0
2018-07-05T01:59:19.432Z,0
2018-07-05T02:00:29.590Z,0
2018-07-05T02:01:39.876Z,0
2018-07-05T02:02:49.723Z,0
2018-07-05T02:03:59.864Z,0
2018-07-05T02:05:09.992Z,0
2018-07-05T02:06:20.124Z,0
2018-07-05T02:07:30.274Z,0
2018-07-05T02:08:40.243Z,0
2018-07-05T02:09:50.525Z,0
2018-07-05T02:11:00.399Z,0
2018-07-05T02:12:10.535Z,0
2018-07-05T02:13:20.690Z,0
2018-07-05T02:14:30.978Z,0
2018-07-05T02:15:40.932Z,4
2018-07-05T02:16:51.825Z,4
2018-07-05T02:18:01.978Z,0
2018-07-05T02:19:12.260Z,0
2018-07-05T02:20:22.506Z,4
2018-07-05T02:21:32.367Z,0
2018-07-05T02:22:42.522Z,4
2018-07-05T02:23:52.205Z,4
2018-07-05T02:25:02.459Z,4
2018-07-05T02:26:12.599Z,4
2018-07-05T02:27:22.792Z,4
2018-07-05T02:28:33.066Z,8
2018-07-05T02:29:43.205Z,8
2018-07-05T02:30:54.425Z,8
2018-07-05T02:32:04.716Z,8
2018-07-05T02:33:14.910Z,8
2018-07-05T02:34:24.466Z,12
2018-07-05T02:35:34.597Z,12
2018-07-05T02:36:44.469Z,12
2018-07-05T02:37:54.838Z,16
2018-07-05T02:39:05.048Z,20
2018-07-05T02:40:15.200Z,20
2018-07-05T02:41:25.454Z,24
2018-07-05T02:42:35.330Z,28
2018-07-05T02:43:45.467Z,32
2018-07-05T02:44:55.599Z,36
2018-07-05T02:46:05.870Z,40
2018-07-05T02:47:16.030Z,44
2018-07-05T02:48:26.181Z,48
2018-07-05T02:49:36.322Z,52
2018-07-05T02:50:46.456Z,60
2018-07-05T02:51:56.595Z,64
2018-07-05T02:53:06.780Z,68
2018-07-05T02:54:16.934Z,72
2018-07-05T02:55:27.156Z,80
2018-07-05T02:56:37.380Z,88
2018-07-05T02:57:47.599Z,96
2018-07-05T02:58:57.796Z,104
2018-07-05T03:00:08.069Z,112
2018-07-05T03:01:18.261Z,120
2018-07-05T03:02:28.286Z,128
2018-07-05T03:03:38.461Z,140
2018-07-05T03:04:48.615Z,148
2018-07-05T03:05:58.758Z,160
2018-07-05T03:07:08.959Z,164
2018-07-05T03:08:19.198Z,180
2018-07-05T03:09:29.392Z,196
2018-07-05T03:10:39.272Z,212
2018-07-05T03:11:49.393Z,232
2018-07-05T03:12:59.539Z,252
2018-07-05T03:14:09.741Z,276
2018-07-05T03:15:19.955Z,296
2018-07-05T03:16:29.822Z,312
2018-07-05T03:17:40.178Z,328
2018-07-05T03:18:50.330Z,344
2018-07-05T03:20:00.490Z,352
2018-07-05T03:21:10.641Z,364
2018-07-05T03:22:20.879Z,372
2018-07-05T03:23:31.019Z,388
2018-07-05T03:24:41.269Z,412
2018-07-05T03:25:51.475Z,440
2018-07-05T03:27:01.836Z,460
2018-07-05T03:28:11.958Z,476
2018-07-05T03:29:22.122Z,496
2018-07-05T03:30:32.271Z,516
2018-07-05T03:31:42.444Z,540
2018-07-05T03:32:52.865Z,572
2018-07-05T03:34:02.997Z,604
2018-07-05T03:35:12.893Z,632
2018-07-05T03:36:23.130Z,672
2018-07-05T03:37:33.321Z,708
2018-07-05T03:38:43.447Z,752
2018-07-05T03:39:53.714Z,788
2018-07-05T03:41:03.903Z,808
2018-07-05T03:42:14.097Z,816
2018-07-05T03:43:24.349Z,824
2018-07-05T03:44:34.589Z,848
2018-07-05T03:45:44.828Z,904
2018-07-05T03:46:54.986Z,984
2018-07-05T03:48:05.205Z,1052
2018-07-05T03:49:15.398Z,1096
2018-07-05T03:50:25.272Z,1160
2018-07-05T03:51:35.550Z,1236
2018-07-05T03:52:45.816Z,1316
2018-07-05T03:53:55.595Z,1388
2018-07-05T03:55:05.530Z,1464
2018-07-05T03:56:15.653Z,1556
2018-07-05T03:57:25.777Z,1628
2018-07-05T03:58:35.933Z,1600
2018-07-05T03:59:46.115Z,1520
2018-07-05T04:00:56.277Z,1448
2018-07-05T04:02:06.426Z,1428
2018-07-05T04:03:16.558Z,1480
2018-07-05T04:04:26.726Z,1600
2018-07-05T04:05:36.903Z,1704
2018-07-05T04:06:46.863Z,1756
2018-07-05T04:07:56.664Z,1796
2018-07-05T04:09:06.826Z,1860
2018-07-05T04:10:16.965Z,1984
2018-07-05T04:11:27.090Z,2120
2018-07-05T04:12:37.276Z,2252
2018-07-05T04:13:47.139Z,2416
2018-07-05T04:14:57.115Z,2588
2018-07-05T04:16:06.973Z,2708
2018-07-05T04:17:16.602Z,2776
2018-07-05T04:18:27.442Z,2728
2018-07-05T04:20:09.564Z,2644
2018-07-05T04:21:19.717Z,2720
2018-07-05T04:22:30.096Z,2816
2018-07-05T04:23:40.210Z,2832
2018-07-05T04:24:50.167Z,2844
2018-07-05T04:26:00.040Z,2964
2018-07-05T04:27:10.007Z,3112
2018-07-05T04:28:20.210Z,3256
2018-07-05T04:29:30.361Z,3400
2018-07-05T04:30:40.329Z,3480
2018-07-05T04:31:49.696Z,3440
2018-07-05T04:32:59.590Z,3356
2018-07-05T04:34:09.576Z,3200
2018-07-05T04:35:19.518Z,3084
2018-07-05T04:36:29.270Z,3024
2018-07-05T04:37:39.471Z,3016
2018-07-05T04:38:49.117Z,3040
2018-07-05T04:39:58.738Z,2964
2018-07-05T04:41:09.070Z,2892
2018-07-05T04:42:19.249Z,2792
2018-07-05T04:43:29.133Z,2676
2018-07-05T04:44:39.286Z,2752
2018-07-05T04:45:49.156Z,2816
2018-07-05T04:46:59.831Z,2688
2018-07-05T04:48:09.969Z,2676
2018-07-05T04:49:20.177Z,2732
2018-07-05T04:50:30.163Z,2776
2018-07-05T04:51:40.024Z,3020
2018-07-05T04:52:50.267Z,3112
2018-07-05T04:54:00.200Z,3180
2018-07-05T04:55:10.078Z,3300
2018-07-05T04:56:19.708Z,3240
2018-07-05T04:57:29.845Z,3192
2018-07-05T04:58:39.716Z,3064
2018-07-05T04:59:49.378Z,2964
2018-07-05T05:00:59.061Z,2964
2018-07-05T05:02:08.980Z,3064
2018-07-05T05:03:18.973Z,3188
2018-07-05T05:04:29.326Z,3244
2018-07-05T05:05:39.241Z,3084
2018-07-05T05:06:49.551Z,3020
2018-07-05T05:07:59.815Z,3072
2018-07-05T05:09:09.605Z,3216
2018-07-05T05:10:19.765Z,3392
2018-07-05T05:11:29.708Z,3584
2018-07-05T05:12:39.712Z,3632
2018-07-05T05:13:49.926Z,3544
2018-07-05T05:14:59.974Z,3424
2018-07-05T05:16:10.083Z,3440
2018-07-05T05:17:20.209Z,3468
2018-07-05T05:18:30.113Z,3752
2018-07-05T05:19:40.239Z,3868
2018-07-05T05:20:50.597Z,4008
2018-07-05T05:22:00.735Z,4052
2018-07-05T05:23:10.865Z,4380
2018-07-05T05:24:21.038Z,4484
2018-07-05T05:25:30.710Z,4580
2018-07-05T05:26:40.863Z,4940
2018-07-05T05:27:50.740Z,5256
2018-07-05T05:29:01.001Z,5544
2018-07-05T05:30:11.266Z,5792
2018-07-05T05:31:21.204Z,5768
2018-07-05T05:32:31.330Z,5640
2018-07-05T05:33:41.496Z,5628
2018-07-05T05:34:51.630Z,5732
2018-07-05T05:36:01.517Z,5928
2018-07-05T05:37:11.660Z,6416
2018-07-05T05:38:21.837Z,6544
2018-07-05T05:39:31.979Z,6360
2018-07-05T05:40:42.147Z,6284
2018-07-05T05:41:52.326Z,6532
2018-07-05T05:43:02.582Z,6892
2018-07-05T05:44:12.840Z,7412
2018-07-05T05:45:23.131Z,7864
2018-07-05T05:46:33.254Z,7760
2018-07-05T05:47:43.638Z,7444
2018-07-05T05:48:53.767Z,7120
2018-07-05T05:50:03.979Z,6840
2018-07-05T05:51:14.172Z,6852
2018-07-05T05:52:24.327Z,7136
2018-07-05T05:53:34.464Z,7332
2018-07-05T05:54:44.590Z,7228
2018-07-05T05:55:54.718Z,7008
2018-07-05T05:57:04.869Z,6860
2018-07-05T05:58:15.013Z,6884
2018-07-05T05:59:25.168Z,7032
2018-07-05T06:00:35.002Z,7196
2018-07-05T06:01:45.222Z,7240
2018-07-05T06:02:55.185Z,7140
2018-07-05T06:04:05.304Z,6972
2018-07-05T06:05:15.512Z,6808
2018-07-05T06:06:25.649Z,6704
2018-07-05T06:07:35.812Z,6676
2018-07-05T06:08:45.707Z,6596
2018-07-05T06:09:55.675Z,6520
2018-07-05T06:11:05.846Z,6380
2018-07-05T06:12:16.230Z,6212
2018-07-05T06:13:26.404Z,6060
2018-07-05T06:14:36.283Z,5988
2018-07-05T06:15:46.453Z,5828
2018-07-05T06:16:56.334Z,5744
2018-07-05T06:18:06.749Z,5792
2018-07-05T06:19:16.669Z,5948
2018-07-05T06:20:26.851Z,6164
2018-07-05T06:21:36.729Z,6464
2018-07-05T06:22:46.599Z,6852
2018-07-05T06:23:56.739Z,7248
2018-07-05T06:25:06.866Z,7964
2018-07-05T06:26:16.768Z,7700
2018-07-05T06:27:26.908Z,7700
2018-07-05T06:28:37.041Z,7448
2018-07-05T06:29:47.412Z,7276
2018-07-05T06:30:57.342Z,7212
2018-07-05T06:32:07.578Z,6844
2018-07-05T06:33:17.729Z,6488
2018-07-05T06:34:27.629Z,6216
2018-07-05T06:35:38.737Z,6172
2018-07-05T06:36:48.975Z,6252
2018-07-05T06:37:59.147Z,6460
2018-07-05T06:39:09.025Z,6280
2018-07-05T06:40:19.181Z,6172
2018-07-05T06:41:29.325Z,6168
2018-07-05T06:42:39.587Z,6208
2018-07-05T06:43:49.361Z,6240
2018-07-05T06:44:59.540Z,6272
2018-07-05T06:46:09.717Z,6316
2018-07-05T06:47:20.001Z,6532
2018-07-05T06:48:30.019Z,6904
2018-07-05T06:49:40.176Z,6960
2018-07-05T06:50:50.310Z,7060
2018-07-05T06:52:00.435Z,7172
2018-07-05T06:53:10.898Z,7140
2018-07-05T06:54:21.037Z,6908
2018-07-05T06:55:30.947Z,6732
2018-07-05T06:56:41.068Z,6644
2018-07-05T06:57:51.211Z,6696
2018-07-05T06:59:01.357Z,6792
2018-07-05T07:00:11.537Z,6880
2018-07-05T07:01:21.415Z,6944
2018-07-05T07:02:31.562Z,6988
2018-07-05T07:03:41.714Z,7100
2018-07-05T07:04:51.843Z,7184
2018-07-05T07:06:01.734Z,7352
2018-07-05T07:07:11.884Z,7516
2018-07-05T07:08:22.072Z,7544
2018-07-05T07:09:32.317Z,7672
2018-07-05T07:10:42.231Z,7924
2018-07-05T07:11:51.841Z,8204
2018-07-05T07:13:01.980Z,8216
2018-07-05T07:14:11.739Z,8088
2018-07-05T07:15:21.888Z,8120
2018-07-05T07:16:32.027Z,8280
2018-07-05T07:17:42.303Z,8196
2018-07-05T07:18:52.471Z,7996
2018-07-05T07:20:02.709Z,7956
2018-07-05T07:21:12.938Z,8036
2018-07-05T07:22:23.140Z,8364
2018-07-05T07:23:33.019Z,8812
2018-07-05T07:24:43.267Z,9152
2018-07-05T07:25:53.440Z,9196
2018-07-05T07:27:03.570Z,9112
2018-07-05T07:28:14.718Z,8964
2018-07-05T07:29:24.930Z,8984
2018-07-05T07:30:35.470Z,8992
2018-07-05T07:31:45.473Z,8864
2018-07-05T07:32:55.828Z,8768
2018-07-05T07:34:06.062Z,8740
2018-07-05T07:35:16.288Z,9000
2018-07-05T07:36:26.507Z,9432
2018-07-05T07:37:37.016Z,9804
2018-07-05T07:38:47.432Z,9796
2018-07-05T07:39:57.575Z,9424
2018-07-05T07:41:07.784Z,9384
2018-07-05T07:42:18.012Z,9684
2018-07-05T07:43:28.396Z,9952
2018-07-05T07:44:38.567Z,9988
2018-07-05T07:45:49.091Z,9868
2018-07-05T07:46:59.417Z,9836
2018-07-05T07:48:09.580Z,9964
2018-07-05T07:49:19.753Z,10068
2018-07-05T07:50:29.953Z,9956
2018-07-05T07:51:40.115Z,9768
2018-07-05T07:52:50.015Z,9552
2018-07-05T07:54:00.203Z,9380
2018-07-05T07:55:10.386Z,9172
2018-07-05T07:56:20.287Z,9012
2018-07-05T07:57:30.647Z,9112
2018-07-05T07:58:40.768Z,9164
2018-07-05T07:59:50.651Z,9316
2018-07-05T08:01:00.835Z,9532
2018-07-05T08:02:10.978Z,9744
2018-07-05T08:03:21.135Z,9812
2018-07-05T08:04:31.310Z,9744
2018-07-05T08:05:41.433Z,9820
2018-07-05T08:06:51.305Z,10052
2018-07-05T08:08:01.338Z,10328
2018-07-05T08:09:11.595Z,10556
2018-07-05T08:10:21.826Z,10612
2018-07-05T08:11:32.036Z,10916
2018-07-05T08:12:42.312Z,11208
2018-07-05T08:13:52.699Z,11316
2018-07-05T08:15:02.964Z,11316
2018-07-05T08:16:13.028Z,11272
2018-07-05T08:17:23.203Z,11252
2018-07-05T08:18:33.386Z,11176
2018-07-05T08:19:44.688Z,11008
2018-07-05T08:20:54.887Z,10828
2018-07-05T08:22:05.048Z,10728
2018-07-05T08:23:15.500Z,10788
2018-07-05T08:24:26.628Z,10960
2018-07-05T08:25:36.552Z,11064
2018-07-05T08:26:46.749Z,10876
2018-07-05T08:27:56.885Z,10504
2018-07-05T08:29:06.766Z,9756
2018-07-05T08:30:17.121Z,11012
2018-07-05T08:31:27.438Z,10948
2018-07-05T08:32:38.729Z,10952
2018-07-05T08:33:48.898Z,11100
2018-07-05T08:34:59.040Z,11324
2018-07-05T08:36:08.818Z,11580
2018-07-05T08:37:19.044Z,11920
2018-07-05T08:38:29.186Z,11784
2018-07-05T08:39:39.371Z,11400
2018-07-05T08:40:49.319Z,11536
2018-07-05T08:42:00.450Z,11808
2018-07-05T08:43:10.579Z,12148
2018-07-05T08:44:20.742Z,12616
2018-07-05T08:45:30.886Z,13552
2018-07-05T08:46:40.820Z,15548
2018-07-05T08:47:50.969Z,31840
2018-07-05T08:49:01.115Z,47680
2018-07-05T08:50:11.413Z,57568
2018-07-05T08:51:21.821Z,53408
2018-07-05T08:52:31.979Z,56384
2018-07-05T08:53:42.117Z,56096
2018-07-05T08:54:52.403Z,39584
2018-07-05T08:56:03.918Z,25536
2018-07-05T08:57:14.088Z,18720
2018-07-05T08:58:24.481Z,18656
2018-07-05T08:59:34.700Z,18272
2018-07-05T09:00:45.093Z,18208
2018-07-05T09:01:54.989Z,19200
2018-07-05T09:03:05.198Z,24704
2018-07-05T09:04:15.094Z,17408
2018-07-05T09:05:25.603Z,52096
2018-07-05T09:06:35.794Z,53344
2018-07-05T09:07:45.683Z,49856
2018-07-05T09:08:56.867Z,61024
2018-07-05T09:10:07.025Z,19104
2018-07-05T09:11:17.263Z,40992
2018-07-05T09:12:27.141Z,26048
2018-07-05T09:13:38.277Z,57888
2018-07-05T09:14:48.459Z,60544
2018-07-05T09:15:58.684Z,57152
2018-07-05T09:17:08.840Z,58144
2018-07-05T09:18:19.242Z,55936
2018-07-05T09:19:29.738Z,54464
2018-07-05T09:20:39.919Z,65408
2018-07-05T09:21:50.310Z,69824
2018-07-05T09:23:00.469Z,62624
2018-07-05T09:24:10.711Z,69760
2018-07-05T09:25:20.893Z,76864
2018-07-05T09:26:31.152Z,68928
2018-07-05T09:27:41.481Z,60320
2018-07-05T09:28:51.630Z,58368
2018-07-05T09:30:01.814Z,65536
2018-07-05T09:31:12.058Z,74112
2018-07-05T09:32:22.429Z,67616
2018-07-05T09:33:32.607Z,56928
2018-07-05T09:34:43.961Z,59264
2018-07-05T09:35:53.873Z,65632
2018-07-05T09:37:03.730Z,65696
2018-07-05T09:38:14.031Z,68704
2018-07-05T09:39:24.182Z,68896
2018-07-05T09:40:34.351Z,62432
2018-07-05T09:41:44.969Z,68576
2018-07-05T09:42:56.256Z,79072
2018-07-05T09:44:06.436Z,73024
2018-07-05T09:45:16.229Z,66752
2018-07-05T09:46:26.405Z,71872
2018-07-05T09:47:36.320Z,72896
2018-07-05T09:48:46.509Z,66016
2018-07-05T09:49:56.659Z,60448
2018-07-05T09:51:09.564Z,62912
2018-07-05T09:52:19.821Z,71200
2018-07-05T09:53:29.676Z,74304
2018-07-05T09:54:39.916Z,76160
2018-07-05T09:55:50.086Z,75776
2018-07-05T09:57:00.271Z,66624
2018-07-05T09:58:10.487Z,60128
2018-07-05T09:59:20.426Z,68736
2018-07-05T10:00:30.584Z,72064
2018-07-05T10:01:41.751Z,65888
2018-07-05T10:02:52.197Z,64704
2018-07-05T10:04:02.354Z,72320
2018-07-05T10:05:12.385Z,78144
2018-07-05T10:06:22.720Z,76448
2018-07-05T10:07:32.896Z,76288
2018-07-05T10:08:43.048Z,66464
2018-07-05T10:09:52.925Z,68032
2018-07-05T10:11:03.092Z,79104
2018-07-05T10:12:13.226Z,69792
2018-07-05T10:13:24.203Z,61472
2018-07-05T10:14:35.080Z,78432
2018-07-05T10:15:45.354Z,86944
2018-07-05T10:16:54.993Z,80096
2018-07-05T10:18:05.192Z,83872
2018-07-05T10:19:15.557Z,86816
2018-07-05T10:20:25.720Z,78496
2018-07-05T10:21:35.625Z,74880
2018-07-05T10:22:45.789Z,78400
2018-07-05T10:23:55.712Z,83328
2018-07-05T10:25:05.866Z,84576
2018-07-05T10:26:16.027Z,79552
2018-07-05T10:27:26.291Z,80576
2018-07-05T10:28:36.447Z,91488
2018-07-05T10:29:46.272Z,94112
2018-07-05T10:30:56.452Z,87456
2018-07-05T10:32:06.518Z,89536
2018-07-05T10:33:16.458Z,93696
2018-07-05T10:34:26.626Z,91904
2018-07-05T10:35:36.797Z,86496
2018-07-05T10:36:46.965Z,83744
2018-07-05T10:37:57.367Z,91776
2018-07-05T10:39:07.595Z,104384
2018-07-05T10:40:17.793Z,110720
2018-07-05T10:41:27.971Z,103520
2018-07-05T10:42:38.129Z,87648
2018-07-05T10:43:48.511Z,77248
2018-07-05T10:44:58.508Z,74912
2018-07-05T10:46:08.994Z,73728
2018-07-05T10:47:19.160Z,70016
2018-07-05T10:48:29.015Z,67776
2018-07-05T10:49:39.220Z,77056
2018-07-05T10:50:49.477Z,83904
2018-07-05T10:51:59.416Z,80064
2018-07-05T10:53:09.581Z,84704
2018-07-05T10:54:19.878Z,89600
2018-07-05T10:55:30.273Z,89216
2018-07-05T10:56:40.453Z,93984
2018-07-05T10:57:50.640Z,104992
2018-07-05T10:59:00.798Z,112640
2018-07-05T11:00:10.953Z,107648
2018-07-05T11:01:21.248Z,92256
2018-07-05T11:02:31.416Z,87776
2018-07-05T11:03:41.608Z,96672
2018-07-05T11:04:51.788Z,98912
2018-07-05T11:06:01.743Z,91328
2018-07-05T11:07:11.970Z,94432
2018-07-05T11:08:22.174Z,95456
2018-07-05T11:09:32.358Z,81504
2018-07-05T11:10:42.550Z,86144
2018-07-05T11:11:52.714Z,98336
2018-07-05T11:13:04.059Z,90336
2018-07-05T11:14:14.191Z,81216
2018-07-05T11:15:24.361Z,93824
2018-07-05T11:16:34.560Z,99200
2018-07-05T11:17:44.840Z,84800
2018-07-05T11:18:55.091Z,86400
2018-07-05T11:20:05.276Z,106784
2018-07-05T11:21:15.481Z,108896
2018-07-05T11:22:25.639Z,86368
2018-07-05T11:23:35.877Z,67456
2018-07-05T11:24:46.038Z,73824
2018-07-05T11:25:55.748Z,90208
2018-07-05T11:27:05.942Z,86272
2018-07-05T11:28:17.247Z,77856
2018-07-05T11:29:27.435Z,85888
2018-07-05T11:30:37.329Z,96960
2018-07-05T11:31:47.481Z,108608
2018-07-05T11:32:57.635Z,101824
2018-07-05T11:34:07.829Z,88064
2018-07-05T11:35:17.992Z,79392
2018-07-05T11:36:28.342Z,75360
2018-07-05T11:37:38.404Z,85536
2018-07-05T11:38:48.834Z,63648
2018-07-05T11:39:59.259Z,58720
2018-07-05T11:41:09.525Z,80320
2018-07-05T11:42:19.871Z,85696
2018-07-05T11:43:30.162Z,79680
2018-07-05T11:44:40.367Z,84480
2018-07-05T11:45:50.530Z,96128
2018-07-05T11:47:01.182Z,100992
2018-07-05T11:48:11.362Z,89088
2018-07-05T11:49:21.586Z,84896
2018-07-05T11:50:31.777Z,90752
2018-07-05T11:51:41.697Z,91712
2018-07-05T11:52:51.380Z,83904
2018-07-05T11:54:01.297Z,75456
2018-07-05T11:55:11.461Z,78688
2018-07-05T11:56:21.625Z,86048
2018-07-05T11:57:31.811Z,86400
2018-07-05T11:58:42.225Z,86144
2018-07-05T11:59:52.199Z,74592
2018-07-05T12:01:02.204Z,72352
2018-07-05T12:02:12.513Z,70176
2018-07-05T12:03:22.881Z,53152
2018-07-05T12:04:33.372Z,42944
2018-07-05T12:05:43.589Z,86112
2018-07-05T12:06:53.426Z,92160
2018-07-05T12:08:03.774Z,79328
2018-07-05T12:09:14.006Z,80128
2018-07-05T12:10:24.320Z,79712
2018-07-05T12:11:34.697Z,75712
2018-07-05T12:12:44.848Z,70528
2018-07-05T12:13:55.047Z,72736
2018-07-05T12:15:05.222Z,73984
2018-07-05T12:16:15.127Z,69888
2018-07-05T12:17:25.306Z,68800
2018-07-05T12:18:36.617Z,67264
2018-07-05T12:19:46.893Z,65920
2018-07-05T12:20:57.222Z,65408
2018-07-05T12:22:07.480Z,63520
2018-07-05T12:23:17.662Z,64640
2018-07-05T12:24:28.134Z,69216
2018-07-05T12:25:38.301Z,71840
2018-07-05T12:26:48.514Z,14220
2018-07-05T12:27:58.885Z,13524
2018-07-05T12:29:09.555Z,13372
2018-07-05T12:30:19.912Z,83456
2018-07-05T12:31:30.128Z,80384
2018-07-05T12:32:40.380Z,73472
2018-07-05T12:33:50.408Z,84000
2018-07-05T12:35:00.575Z,22400
2018-07-05T12:36:10.729Z,15484
2018-07-05T12:37:20.922Z,16320
2018-07-05T12:38:30.836Z,75648
2018-07-05T12:39:41.106Z,76320
2018-07-05T12:40:51.078Z,84480
2018-07-05T12:42:01.068Z,77696
2018-07-05T12:43:11.315Z,70144
2018-07-05T12:44:21.641Z,69760
2018-07-05T12:45:31.826Z,80800
2018-07-05T12:46:42.069Z,93920
2018-07-05T12:47:52.269Z,92864
2018-07-05T12:49:02.536Z,87552
2018-07-05T12:50:12.774Z,85536
2018-07-05T12:51:23.031Z,86688
2018-07-05T12:52:33.209Z,83136
2018-07-05T12:53:43.377Z,71072
2018-07-05T12:54:53.585Z,67104
2018-07-05T12:56:03.774Z,80928
2018-07-05T12:57:13.676Z,93824
2018-07-05T12:58:24.287Z,86688
2018-07-05T12:59:34.545Z,64288
2018-07-05T13:00:44.721Z,56832
2018-07-05T13:01:54.978Z,84928
2018-07-05T13:03:04.944Z,52800
2018-07-05T13:04:15.696Z,86368
2018-07-05T13:05:26.122Z,55232
2018-07-05T13:06:36.038Z,66560
2018-07-05T13:07:46.397Z,92928
2018-07-05T13:08:56.563Z,88096
2018-07-05T13:10:06.796Z,66496
2018-07-05T13:11:16.953Z,57984
2018-07-05T13:12:27.107Z,67168
2018-07-05T13:13:37.266Z,76672
2018-07-05T13:14:47.472Z,77024
2018-07-05T13:15:57.655Z,72896
2018-07-05T13:17:07.860Z,76128
2018-07-05T13:18:18.337Z,80512
2018-07-05T13:19:28.792Z,73824
2018-07-05T13:20:38.590Z,68640
2018-07-05T13:21:48.762Z,75072
2018-07-05T13:23:00.011Z,83648
2018-07-05T13:24:10.179Z,71552
2018-07-05T13:25:20.100Z,63328
2018-07-05T13:26:30.380Z,62496
2018-07-05T13:27:40.853Z,66720
2018-07-05T13:28:51.011Z,64768
2018-07-05T13:30:01.276Z,68000
2018-07-05T13:31:11.469Z,71296
2018-07-05T13:32:21.673Z,63840
2018-07-05T13:33:31.930Z,60256
2018-07-05T13:34:42.168Z,63392
2018-07-05T13:35:52.481Z,75872
2018-07-05T13:37:02.642Z,82656
2018-07-05T13:38:12.599Z,75872
2018-07-05T13:39:22.780Z,63680
2018-07-05T13:40:33.186Z,57632
2018-07-05T13:41:43.445Z,62144
2018-07-05T13:42:53.697Z,68736
2018-07-05T13:44:03.957Z,67232
2018-07-05T13:45:13.902Z,58848
2018-07-05T13:46:24.095Z,49472
2018-07-05T13:47:33.771Z,52672
2018-07-05T13:48:43.961Z,61856
2018-07-05T13:49:54.149Z,75488
2018-07-05T13:51:04.384Z,63008
2018-07-05T13:52:14.337Z,50880
2018-07-05T13:53:24.506Z,43104
2018-07-05T13:54:34.722Z,55456
2018-07-05T13:55:44.909Z,55872
2018-07-05T13:56:55.125Z,62880
2018-07-05T13:58:05.319Z,52224
2018-07-05T13:59:15.538Z,37376
2018-07-05T14:00:25.471Z,27296
2018-07-05T14:01:35.375Z,56704
2018-07-05T14:02:45.580Z,44640
2018-07-05T14:03:55.437Z,51168
2018-07-05T14:05:05.793Z,55136
2018-07-05T14:06:15.972Z,52128
2018-07-05T14:07:26.168Z,64000
2018-07-05T14:08:36.323Z,66592
2018-07-05T14:09:46.515Z,56160
2018-07-05T14:10:56.888Z,49632
2018-07-05T14:12:07.052Z,53888
2018-07-05T14:13:17.245Z,61152
2018-07-05T14:14:27.190Z,60768
2018-07-05T14:15:37.348Z,57376
2018-07-05T14:16:47.362Z,51872
2018-07-05T14:17:57.627Z,52416
2018-07-05T14:19:07.837Z,45184
2018-07-05T14:20:17.986Z,39584
2018-07-05T14:21:28.146Z,40640
2018-07-05T14:22:38.065Z,38304
2018-07-05T14:23:48.985Z,37664
2018-07-05T14:24:59.392Z,31296
2018-07-05T14:26:09.682Z,24992
2018-07-05T14:27:19.862Z,26912
2018-07-05T14:28:30.051Z,23456
2018-07-05T14:29:40.158Z,34976
2018-07-05T14:30:50.383Z,19712
2018-07-05T14:32:00.568Z,29888
2018-07-05T14:33:10.484Z,35456
2018-07-05T14:34:20.662Z,34560
2018-07-05T14:35:31.710Z,29824
2018-07-05T14:36:41.959Z,30720
2018-07-05T14:37:52.184Z,50304
2018-07-05T14:39:02.103Z,47616
2018-07-05T14:40:11.738Z,38016
2018-07-05T14:41:21.923Z,42272
2018-07-05T14:42:32.203Z,54816
2018-07-05T14:43:42.359Z,43968
2018-07-05T14:44:52.781Z,34240
2018-07-05T14:46:02.822Z,33696
2018-07-05T14:47:13.017Z,39776
2018-07-05T14:48:24.279Z,43584
2018-07-05T14:49:34.450Z,32832
2018-07-05T14:50:44.711Z,32096
2018-07-05T14:51:54.944Z,43552
2018-07-05T14:53:05.146Z,48032
2018-07-05T14:54:15.335Z,50880
2018-07-05T14:55:25.622Z,49408
2018-07-05T14:56:35.780Z,47520
2018-07-05T14:57:45.988Z,45888
2018-07-05T14:58:56.278Z,45824
2018-07-05T15:00:06.155Z,46944
2018-07-05T15:01:16.309Z,43328
2018-07-05T15:02:26.521Z,43968
2018-07-05T15:03:36.445Z,49312
2018-07-05T15:04:46.794Z,50112
2018-07-05T15:05:57.068Z,42016
2018-07-05T15:07:07.220Z,27168
2018-07-05T15:08:17.479Z,16672
2018-07-05T15:09:27.758Z,13572
2018-07-05T15:10:37.936Z,12568
2018-07-05T15:11:48.115Z,11952
2018-07-05T15:12:58.284Z,11400
2018-07-05T15:14:08.494Z,11132
2018-07-05T15:15:19.651Z,11108
2018-07-05T15:16:30.064Z,11340
2018-07-05T15:17:40.228Z,11608
2018-07-05T15:18:50.144Z,12128
2018-07-05T15:20:00.314Z,12256
2018-07-05T15:21:10.488Z,12352
2018-07-05T15:22:20.381Z,12588
2018-07-05T15:23:30.529Z,12472
2018-07-05T15:24:40.375Z,12148
2018-07-05T15:25:50.536Z,11732
2018-07-05T15:27:00.711Z,10948
2018-07-05T15:28:10.865Z,10528
2018-07-05T15:29:20.845Z,9208
2018-07-05T15:30:31.020Z,9232
2018-07-05T15:31:41.240Z,10288
2018-07-05T15:32:51.425Z,10044
2018-07-05T15:34:01.326Z,10468
2018-07-05T15:35:11.232Z,10460
2018-07-05T15:36:21.426Z,10724
2018-07-05T15:37:32.613Z,11396